createdAt,value
2018-10-19T00:01:02.816Z,34.60
2018-10-19T00:03:31.587Z,35.10
2018-10-19T00:06:00.319Z,35.80
2018-10-19T00:08:29.093Z,36.60
2018-10-19T00:10:57.839Z,36.80
2018-10-19T00:13:26.599Z,36.70
2018-10-19T00:15:55.337Z,36.60
2018-10-19T00:18:24.105Z,35.90
2018-10-19T00:20:52.862Z,35.40
2018-10-19T00:23:21.622Z,35.50
2018-10-19T00:25:50.402Z,36.00
2018-10-19T00:28:19.133Z,36.50
2018-10-19T00:30:47.879Z,36.50
2018-10-19T00:33:16.650Z,36.50
2018-10-19T00:35:45.477Z,36.50
2018-10-19T00:38:14.279Z,35.80
2018-10-19T00:40:42.999Z,35.20
2018-10-19T00:43:11.779Z,35.40
2018-10-19T00:45:47.649Z,36.10
2018-10-19T00:48:17.484Z,36.40
2018-10-19T00:50:46.225Z,36.40
2018-10-19T00:53:15.412Z,36.20
2018-10-19T00:55:44.117Z,36.00
2018-10-19T00:58:12.935Z,35.10
2018-10-19T01:00:42.529Z,34.80
2018-10-19T01:03:11.457Z,35.20
2018-10-19T01:05:40.927Z,35.70
2018-10-19T01:08:10.357Z,36.20
2018-10-19T01:10:39.092Z,35.80
2018-10-19T01:13:07.859Z,35.70
2018-10-19T01:15:36.595Z,35.40
2018-10-19T01:18:05.515Z,34.50
2018-10-19T01:20:34.251Z,34.30
2018-10-19T01:23:03.059Z,34.80
2018-10-19T01:25:31.744Z,35.40
2018-10-19T01:28:00.499Z,35.60
2018-10-19T01:30:29.223Z,35.40
2018-10-19T01:32:57.988Z,35.20
2018-10-19T01:35:26.688Z,34.80
2018-10-19T01:37:55.415Z,34.20
2018-10-19T01:40:24.135Z,33.80
2018-10-19T01:42:52.860Z,34.80
2018-10-19T01:45:21.590Z,34.70
2018-10-19T01:47:50.351Z,35.00
2018-10-19T01:50:19.040Z,34.90
2018-10-19T01:52:47.770Z,34.70
2018-10-19T01:55:16.543Z,34.20
2018-10-19T01:57:45.221Z,33.60
2018-10-19T02:00:13.955Z,33.50
2018-10-19T02:02:42.684Z,34.00
2018-10-19T02:05:11.465Z,34.50
2018-10-19T02:07:40.124Z,34.70
2018-10-19T02:10:08.898Z,34.50
2018-10-19T02:12:37.621Z,34.40
2018-10-19T02:15:06.989Z,33.90
2018-10-19T02:17:35.649Z,33.30
2018-10-19T02:20:04.403Z,33.30
2018-10-19T02:22:33.127Z,33.80
2018-10-19T02:25:01.878Z,34.30
2018-10-19T02:27:30.598Z,34.40
2018-10-19T02:29:59.456Z,34.20
2018-10-19T02:32:28.176Z,34.10
2018-10-19T02:34:56.950Z,33.40
2018-10-19T02:37:25.657Z,32.90
2018-10-19T02:39:54.407Z,33.60
2018-10-19T02:42:23.128Z,33.80
2018-10-19T02:44:51.883Z,34.20
2018-10-19T02:47:20.604Z,34.20
2018-10-19T02:49:49.349Z,34.10
2018-10-19T02:52:18.070Z,34.00
2018-10-19T02:54:46.823Z,33.40
2018-10-19T02:57:15.610Z,32.90
2018-10-19T02:59:44.301Z,33.00
2018-10-19T03:02:13.053Z,33.50
2018-10-19T03:04:41.802Z,33.90
2018-10-19T03:07:10.529Z,33.90
2018-10-19T03:09:39.284Z,33.90
2018-10-19T03:12:08.113Z,33.60
2018-10-19T03:14:36.866Z,33.10
2018-10-19T03:17:05.790Z,32.60
2018-10-19T03:19:34.454Z,32.80
2018-10-19T03:22:03.187Z,33.20
2018-10-19T03:24:31.949Z,33.70
2018-10-19T03:27:00.685Z,33.60
2018-10-19T03:29:29.420Z,33.50
2018-10-19T03:31:58.154Z,33.40
2018-10-19T03:34:26.898Z,32.70
2018-10-19T03:36:55.623Z,32.20
2018-10-19T03:39:24.374Z,32.50
2018-10-19T03:41:53.155Z,32.90
2018-10-19T03:44:21.911Z,33.30
2018-10-19T03:46:50.638Z,33.30
2018-10-19T03:49:19.443Z,33.30
2018-10-19T03:51:48.112Z,33.00
2018-10-19T03:54:16.877Z,32.40
2018-10-19T03:56:45.593Z,31.90
2018-10-19T03:59:14.436Z,32.10
2018-10-19T04:01:43.067Z,32.70
2018-10-19T04:04:11.822Z,33.10
2018-10-19T04:06:40.541Z,33.00
2018-10-19T04:09:10.958Z,32.80
2018-10-19T04:11:39.642Z,32.70
2018-10-19T04:14:09.094Z,32.00
2018-10-19T04:16:37.953Z,31.80
2018-10-19T04:19:07.078Z,32.10
2018-10-19T04:21:35.822Z,32.10
2018-10-19T04:24:04.760Z,32.20
2018-10-19T04:26:33.481Z,32.00
2018-10-19T04:29:02.282Z,31.80
2018-10-19T04:31:30.988Z,31.40
2018-10-19T04:33:59.711Z,31.00
2018-10-19T04:36:28.446Z,30.00
2018-10-19T04:38:57.242Z,28.80
2018-10-19T04:41:25.971Z,27.40
2018-10-19T04:43:54.676Z,26.30
2018-10-19T04:46:23.409Z,25.40
2018-10-19T04:48:52.141Z,25.20
2018-10-19T04:51:20.874Z,25.60
2018-10-19T04:53:49.659Z,25.90
2018-10-19T04:56:18.453Z,25.40
2018-10-19T04:58:47.180Z,25.50
2018-10-19T05:01:15.973Z,25.40
2018-10-19T05:03:44.671Z,26.20
2018-10-19T05:06:13.507Z,29.40
2018-10-19T05:08:42.155Z,30.40
2018-10-19T05:11:10.899Z,29.20
2018-10-19T05:13:39.619Z,31.50
2018-10-19T05:16:08.357Z,33.90
2018-10-19T05:18:37.110Z,33.70
2018-10-19T05:21:05.861Z,30.90
2018-10-19T05:23:34.594Z,30.10
2018-10-19T05:26:03.482Z,29.90
2018-10-19T05:28:32.161Z,29.40
2018-10-19T05:31:00.920Z,29.20
2018-10-19T05:33:29.649Z,28.80
2018-10-19T05:35:58.406Z,28.20
2018-10-19T05:38:27.132Z,27.70
2018-10-19T05:40:55.916Z,27.10
2018-10-19T05:43:24.653Z,26.60
2018-10-19T05:45:53.434Z,26.10
2018-10-19T05:48:22.159Z,25.40
2018-10-19T05:50:50.926Z,24.90
2018-10-19T05:53:19.653Z,25.00
2018-10-19T05:55:48.409Z,23.80
2018-10-19T05:58:17.131Z,23.20
2018-10-19T06:00:45.891Z,22.70
2018-10-19T06:03:14.612Z,22.40
2018-10-19T06:05:43.372Z,22.00
2018-10-19T06:08:12.325Z,21.60
2018-10-19T06:10:40.976Z,21.40
2018-10-19T06:13:12.649Z,21.00
2018-10-19T06:15:41.413Z,20.60
2018-10-19T06:18:10.145Z,20.90
2018-10-19T06:20:38.911Z,20.80
2018-10-19T06:23:07.671Z,20.00
2018-10-19T06:25:36.528Z,19.80
2018-10-19T06:28:05.253Z,19.60
2018-10-19T06:30:34.008Z,19.50
2018-10-19T06:33:02.740Z,19.30
2018-10-19T06:35:31.505Z,18.60
2018-10-19T06:38:00.291Z,18.20
2018-10-19T06:40:29.001Z,18.10
2018-10-19T06:42:57.732Z,18.60
2018-10-19T06:45:26.493Z,18.80
2018-10-19T06:47:55.224Z,19.20
2018-10-19T06:50:23.977Z,19.50
2018-10-19T06:52:52.721Z,19.90
2018-10-19T06:55:21.472Z,20.20
2018-10-19T06:57:50.202Z,20.50
2018-10-19T07:00:18.961Z,20.70
2018-10-19T07:02:47.680Z,21.10
2018-10-19T07:05:16.549Z,21.40
2018-10-19T07:07:45.207Z,21.50
2018-10-19T07:10:13.896Z,21.80
2018-10-19T07:12:42.627Z,22.00
2018-10-19T07:15:11.865Z,21.40
2018-10-19T07:17:40.601Z,20.70
2018-10-19T07:20:10.768Z,19.90
2018-10-19T07:22:39.672Z,19.10
2018-10-19T07:25:08.761Z,18.60
2018-10-19T07:27:37.499Z,18.20
2018-10-19T07:30:06.235Z,17.50
2018-10-19T07:32:34.970Z,17.30
2018-10-19T07:35:03.805Z,17.40
2018-10-19T07:37:32.535Z,18.30
2018-10-19T07:40:01.260Z,18.80
2018-10-19T07:42:30.025Z,19.30
2018-10-19T07:44:58.746Z,19.70
2018-10-19T07:47:27.600Z,20.00
2018-10-19T07:49:56.493Z,20.20
2018-10-19T07:52:25.204Z,20.50
2018-10-19T07:54:54.023Z,20.80
2018-10-19T07:57:22.781Z,20.90
2018-10-19T07:59:51.511Z,21.10
2018-10-19T08:02:20.265Z,21.50
2018-10-19T08:04:49.000Z,21.70
2018-10-19T08:07:17.794Z,21.90
2018-10-19T08:09:46.512Z,22.10
2018-10-19T08:12:15.265Z,22.30
2018-10-19T08:14:43.994Z,22.50
2018-10-19T08:17:12.853Z,22.80
2018-10-19T08:19:41.481Z,23.00
2018-10-19T08:22:10.254Z,23.80
2018-10-19T08:24:39.003Z,23.30
2018-10-19T08:27:07.805Z,22.80
2018-10-19T08:29:36.489Z,21.70
2018-10-19T08:32:05.305Z,21.70
2018-10-19T08:34:33.979Z,22.30
2018-10-19T08:37:02.737Z,22.90
2018-10-19T08:39:31.464Z,23.20
2018-10-19T08:42:00.228Z,22.80
2018-10-19T08:44:28.957Z,22.00
2018-10-19T08:46:57.775Z,22.40
2018-10-19T08:49:26.456Z,22.80
2018-10-19T08:51:55.221Z,23.20
2018-10-19T08:54:24.011Z,23.20
2018-10-19T08:56:52.715Z,22.90
2018-10-19T08:59:21.443Z,21.90
2018-10-19T09:01:50.201Z,22.10
2018-10-19T09:04:18.931Z,22.90
2018-10-19T09:06:47.695Z,23.60
2018-10-19T09:09:16.464Z,24.30
2018-10-19T09:11:45.169Z,24.80
2018-10-19T09:14:31.742Z,25.20
2018-10-19T09:17:00.541Z,25.40
2018-10-19T09:19:29.211Z,25.50
2018-10-19T09:21:57.942Z,25.80
2018-10-19T09:24:26.674Z,25.90
2018-10-19T09:26:55.444Z,26.60
2018-10-19T09:29:24.191Z,25.60
2018-10-19T09:31:52.925Z,24.30
2018-10-19T09:34:21.651Z,23.90
2018-10-19T09:36:50.476Z,24.30
2018-10-19T09:39:19.143Z,25.50
2018-10-19T09:41:47.870Z,25.70
2018-10-19T09:44:16.632Z,25.70
2018-10-19T09:46:48.987Z,25.40
2018-10-19T09:49:17.685Z,24.60
2018-10-19T09:51:48.146Z,24.70
2018-10-19T09:54:16.914Z,24.80
2018-10-19T09:56:45.931Z,25.20
2018-10-19T09:59:14.734Z,25.80
2018-10-19T10:01:43.431Z,26.00
2018-10-19T10:04:12.205Z,26.20
2018-10-19T10:06:40.933Z,26.50
2018-10-19T10:09:10.480Z,26.70
2018-10-19T10:11:40.160Z,26.80
2018-10-19T10:14:08.931Z,26.80
2018-10-19T10:16:37.807Z,25.90
2018-10-19T10:19:06.910Z,25.20
2018-10-19T10:21:35.553Z,25.30
2018-10-19T10:24:04.408Z,25.80
2018-10-19T10:26:35.578Z,26.30
2018-10-19T10:29:03.887Z,26.60
2018-10-19T10:31:32.612Z,26.70
2018-10-19T10:34:01.455Z,27.10
2018-10-19T10:36:30.160Z,27.20
2018-10-19T10:38:59.280Z,27.40
2018-10-19T10:41:28.154Z,27.50
2018-10-19T10:43:58.088Z,27.70
2018-10-19T10:46:26.819Z,27.70
2018-10-19T10:48:55.608Z,27.90
2018-10-19T10:51:24.308Z,28.00
2018-10-19T10:53:53.981Z,28.10
2018-10-19T10:56:22.696Z,28.20
2018-10-19T10:58:51.451Z,28.40
2018-10-19T11:01:20.169Z,28.30
2018-10-19T11:03:48.916Z,28.30
2018-10-19T11:06:17.675Z,27.30
2018-10-19T11:08:46.396Z,26.50
2018-10-19T11:11:16.722Z,26.80
2018-10-19T11:13:45.715Z,27.20
2018-10-19T11:16:14.963Z,27.70
2018-10-19T11:18:43.681Z,27.90
2018-10-19T11:21:12.371Z,28.10
2018-10-19T11:23:41.275Z,28.30
2018-10-19T11:26:10.001Z,28.60
2018-10-19T11:28:38.728Z,28.70
2018-10-19T11:31:07.491Z,28.90
2018-10-19T11:33:36.180Z,29.10
2018-10-19T11:36:04.930Z,29.20
2018-10-19T11:38:33.657Z,29.30
2018-10-19T11:41:06.284Z,29.40
2018-10-19T11:43:36.930Z,29.40
2018-10-19T11:46:13.570Z,29.60
2018-10-19T11:48:47.215Z,30.00
2018-10-19T11:51:17.218Z,29.80
2018-10-19T11:53:45.941Z,29.30
2018-10-19T11:56:15.019Z,27.80
2018-10-19T11:58:43.740Z,27.40
2018-10-19T12:01:13.677Z,27.70
2018-10-19T12:03:43.706Z,28.30
2018-10-19T12:06:13.541Z,28.80
2018-10-19T12:08:43.437Z,29.10
2018-10-19T12:11:13.533Z,29.20
2018-10-19T12:13:44.140Z,29.40
2018-10-19T12:16:14.202Z,29.60
2018-10-19T12:18:44.187Z,29.90
2018-10-19T12:21:13.578Z,30.00
2018-10-19T12:23:43.200Z,30.00
2018-10-19T12:26:14.019Z,30.00
2018-10-19T12:28:44.099Z,30.20
2018-10-19T12:31:14.295Z,30.30
2018-10-19T12:33:44.108Z,30.70
2018-10-19T12:36:15.204Z,30.70
2018-10-19T12:38:45.155Z,31.20
2018-10-19T12:41:15.230Z,31.00
2018-10-19T12:43:45.162Z,31.30
2018-10-19T12:46:34.032Z,31.00
2018-10-19T12:49:02.780Z,29.60
2018-10-19T12:51:31.490Z,28.50
2018-10-19T12:54:00.277Z,28.60
2018-10-19T12:56:28.947Z,29.30
2018-10-19T12:58:57.779Z,29.80
2018-10-19T13:01:27.807Z,30.10
2018-10-19T13:03:56.545Z,30.40
2018-10-19T13:06:25.273Z,30.60
2018-10-19T13:08:54.477Z,30.80
2018-10-19T13:11:23.476Z,30.80
2018-10-19T13:13:52.361Z,31.00
2018-10-19T13:16:30.039Z,31.30
2018-10-19T13:19:01.169Z,31.40
2018-10-19T13:21:38.093Z,31.60
2018-10-19T13:24:11.882Z,31.70
2018-10-19T13:26:49.774Z,31.70
2018-10-19T13:29:19.515Z,31.90
2018-10-19T13:31:49.597Z,32.30
2018-10-19T13:34:19.604Z,32.40
2018-10-19T13:36:48.247Z,32.40
2018-10-19T13:39:17.043Z,32.60
2018-10-19T13:41:45.790Z,32.80
2018-10-19T13:44:14.420Z,32.90
2018-10-19T13:46:43.158Z,33.20
2018-10-19T13:49:11.894Z,33.70
2018-10-19T13:51:40.637Z,33.30
2018-10-19T13:54:10.709Z,33.10
2018-10-19T13:56:39.442Z,34.00
2018-10-19T13:59:08.206Z,34.10
2018-10-19T14:01:36.886Z,33.80
2018-10-19T14:04:05.609Z,32.40
2018-10-19T14:06:34.344Z,30.70
2018-10-19T14:09:03.864Z,30.90
2018-10-19T14:11:32.570Z,31.70
2018-10-19T14:14:01.298Z,32.50
2018-10-19T14:16:30.867Z,32.80
2018-10-19T14:18:59.620Z,33.20
2018-10-19T14:21:28.349Z,33.50
2018-10-19T14:23:57.074Z,33.50
2018-10-19T14:26:26.202Z,33.90
2018-10-19T14:28:54.950Z,34.50
2018-10-19T14:31:23.847Z,34.10
2018-10-19T14:33:54.119Z,34.40
2018-10-19T14:36:22.875Z,34.50
2018-10-19T14:38:51.603Z,34.70
2018-10-19T14:41:20.365Z,34.90
2018-10-19T14:43:49.089Z,34.90
2018-10-19T14:46:17.843Z,36.00
2018-10-19T14:48:46.628Z,35.40
2018-10-19T14:51:15.322Z,35.60
2018-10-19T14:53:44.021Z,35.60
2018-10-19T14:56:12.785Z,35.80
2018-10-19T14:58:41.477Z,35.90
2018-10-19T15:01:10.194Z,36.00
2018-10-19T15:03:38.925Z,36.30
2018-10-19T15:06:07.640Z,37.10
2018-10-19T15:08:36.369Z,36.50
2018-10-19T15:11:05.415Z,36.70
2018-10-19T15:13:33.989Z,36.90
2018-10-19T15:16:02.714Z,37.00
2018-10-19T15:18:31.482Z,37.10
2018-10-19T15:21:00.178Z,36.50
2018-10-19T15:23:28.907Z,34.90
2018-10-19T15:25:57.626Z,33.10
2018-10-19T15:28:26.358Z,33.50
2018-10-19T15:30:55.084Z,34.40
2018-10-19T15:33:23.810Z,34.90
2018-10-19T15:35:52.558Z,35.40
2018-10-19T15:38:21.261Z,35.30
2018-10-19T15:40:49.987Z,34.50
2018-10-19T15:43:18.725Z,32.70
2018-10-19T15:45:47.446Z,31.60
2018-10-19T15:48:16.187Z,31.90
2018-10-19T15:50:44.904Z,32.90
2018-10-19T15:53:13.631Z,33.60
2018-10-19T15:55:42.350Z,33.80
2018-10-19T15:58:11.076Z,34.40
2018-10-19T16:00:39.889Z,34.50
2018-10-19T16:03:08.580Z,34.60
2018-10-19T16:05:37.240Z,34.00
2018-10-19T16:08:06.062Z,32.70
2018-10-19T16:10:34.783Z,30.80
2018-10-19T16:13:03.523Z,30.80
2018-10-19T16:15:32.249Z,31.50
2018-10-19T16:18:00.994Z,32.70
2018-10-19T16:20:29.698Z,33.10
2018-10-19T16:22:58.454Z,33.10
2018-10-19T16:25:27.176Z,32.60
2018-10-19T16:27:55.929Z,31.10
2018-10-19T16:30:24.661Z,30.10
2018-10-19T16:32:53.416Z,30.80
2018-10-19T16:35:22.142Z,31.60
2018-10-19T16:37:50.932Z,32.30
2018-10-19T16:40:19.628Z,32.70
2018-10-19T16:42:48.385Z,32.30
2018-10-19T16:45:17.170Z,31.10
2018-10-19T16:47:45.870Z,29.50
2018-10-19T16:50:14.596Z,29.50
2018-10-19T16:52:43.431Z,30.00
2018-10-19T16:55:12.066Z,30.90
2018-10-19T16:57:40.800Z,31.50
2018-10-19T17:00:10.314Z,31.50
2018-10-19T17:02:38.953Z,30.90
2018-10-19T17:05:07.838Z,29.60
2018-10-19T17:07:36.687Z,28.90
2018-10-19T17:10:05.999Z,29.10
2018-10-19T17:12:34.753Z,29.90
2018-10-19T17:15:03.504Z,31.30
2018-10-19T17:17:32.212Z,31.00
2018-10-19T17:20:00.977Z,30.60
2018-10-19T17:22:29.709Z,29.80
2018-10-19T17:24:58.452Z,28.50
2018-10-19T17:27:27.181Z,28.20
2018-10-19T17:29:55.954Z,29.00
2018-10-19T17:32:24.640Z,29.60
2018-10-19T17:34:53.375Z,30.00
2018-10-19T17:37:22.153Z,30.30
2018-10-19T17:39:50.996Z,29.80
2018-10-19T17:42:19.730Z,28.80
2018-10-19T17:44:48.465Z,27.90
2018-10-19T17:47:17.200Z,28.10
2018-10-19T17:49:45.935Z,28.80
2018-10-19T17:52:14.665Z,29.40
2018-10-19T17:54:43.438Z,29.80
2018-10-19T17:57:12.165Z,29.40
2018-10-19T17:59:40.874Z,28.50
2018-10-19T18:02:09.599Z,27.30
2018-10-19T18:04:38.414Z,27.30
2018-10-19T18:07:07.405Z,28.10
2018-10-19T18:09:36.284Z,28.60
2018-10-19T18:12:04.942Z,28.90
2018-10-19T18:14:33.737Z,28.70
2018-10-19T18:17:03.409Z,28.00
2018-10-19T18:19:32.171Z,26.70
2018-10-19T18:22:01.026Z,26.60
2018-10-19T18:24:29.735Z,27.30
2018-10-19T18:26:58.521Z,28.00
2018-10-19T18:29:27.230Z,28.30
2018-10-19T18:31:55.991Z,27.80
2018-10-19T18:34:24.769Z,27.50
2018-10-19T18:36:53.458Z,26.40
2018-10-19T18:39:24.015Z,26.10
2018-10-19T18:41:53.204Z,26.80
2018-10-19T18:44:22.147Z,27.30
2018-10-19T18:46:51.697Z,27.80
2018-10-19T18:49:20.537Z,28.10
2018-10-19T18:51:50.481Z,27.20
2018-10-19T18:54:20.199Z,25.80
2018-10-19T18:56:49.616Z,25.60
2018-10-19T18:59:18.781Z,26.10
2018-10-19T19:01:48.226Z,26.70
2018-10-19T19:04:17.624Z,27.40
2018-10-19T19:06:47.179Z,27.20
2018-10-19T19:09:16.464Z,26.80
2018-10-19T19:11:46.447Z,25.60
2018-10-19T19:14:15.809Z,25.20
2018-10-19T19:16:44.809Z,25.70
2018-10-19T19:19:14.224Z,26.40
2018-10-19T19:21:43.398Z,27.00
2018-10-19T19:24:29.894Z,27.60
2018-10-19T19:26:58.634Z,26.70
2018-10-19T19:29:27.413Z,25.60
2018-10-19T19:31:56.158Z,25.60
2018-10-19T19:34:31.130Z,26.20
2018-10-19T19:37:00.471Z,26.70
2018-10-19T19:39:29.192Z,27.00
2018-10-19T19:42:16.250Z,26.80
2018-10-19T19:44:46.009Z,25.90
2018-10-19T19:47:32.392Z,25.10
2018-10-19T19:50:01.860Z,25.50
2018-10-19T19:52:30.709Z,26.20
2018-10-19T19:55:00.401Z,26.90
2018-10-19T19:57:29.176Z,26.80
2018-10-19T19:59:58.288Z,26.30
2018-10-19T20:02:26.991Z,25.30
2018-10-19T20:04:56.321Z,25.20
2018-10-19T20:07:25.253Z,26.10
2018-10-19T20:09:55.204Z,26.10
2018-10-19T20:12:23.992Z,26.50
2018-10-19T20:14:52.670Z,26.80
2018-10-19T20:17:22.740Z,26.90
2018-10-19T20:19:51.488Z,27.00
2018-10-19T20:22:20.224Z,27.30
2018-10-19T20:24:49.536Z,27.50
2018-10-19T20:27:18.606Z,27.70
2018-10-19T20:29:47.752Z,27.70
2018-10-19T20:32:16.934Z,27.90
2018-10-19T20:34:45.860Z,28.00
2018-10-19T20:37:15.045Z,28.10
2018-10-19T20:39:45.226Z,28.40
2018-10-19T20:42:14.302Z,28.60
2018-10-19T20:44:43.554Z,28.70
2018-10-19T20:47:12.398Z,28.80
2018-10-19T20:49:41.916Z,28.80
2018-10-19T20:52:10.675Z,29.00
2018-10-19T20:54:39.405Z,29.00
2018-10-19T20:57:08.183Z,29.20
2018-10-19T20:59:36.993Z,29.30
2018-10-19T21:02:06.370Z,29.50
2018-10-19T21:04:35.097Z,29.60
2018-10-19T21:07:04.206Z,29.70
2018-10-19T21:09:32.948Z,29.90
2018-10-19T21:12:01.751Z,30.80
2018-10-19T21:14:30.454Z,30.00
2018-10-19T21:16:59.480Z,30.10
2018-10-19T21:19:28.666Z,30.30
2018-10-19T21:21:57.712Z,31.30
2018-10-19T21:24:26.604Z,30.60
2018-10-19T21:26:55.448Z,30.70
2018-10-19T21:29:25.540Z,31.00
2018-10-19T21:31:54.291Z,31.20
2018-10-19T21:34:23.024Z,31.20
2018-10-19T21:36:51.933Z,31.50
2018-10-19T21:39:20.667Z,31.60
2018-10-19T21:41:49.455Z,31.80
2018-10-19T21:44:26.282Z,31.90
2018-10-19T21:46:55.861Z,32.20
2018-10-19T21:49:24.865Z,32.50
2018-10-19T21:51:53.780Z,32.40
2018-10-19T21:54:24.304Z,32.50
2018-10-19T21:56:53.030Z,32.70
2018-10-19T21:59:21.763Z,32.90
2018-10-19T22:01:50.488Z,32.90
2018-10-19T22:04:19.236Z,35.50
2018-10-19T22:06:47.960Z,45.30
2018-10-19T22:09:16.698Z,49.10
2018-10-19T22:11:45.427Z,47.50
2018-10-19T22:14:14.187Z,44.50
2018-10-19T22:16:42.912Z,42.10
2018-10-19T22:19:12.097Z,40.20
2018-10-19T22:21:41.544Z,38.60
2018-10-19T22:24:11.265Z,37.70
2018-10-19T22:26:40.250Z,37.40
2018-10-19T22:29:09.307Z,35.90
2018-10-19T22:31:38.007Z,33.80
2018-10-19T22:34:06.804Z,32.10
2018-10-19T22:36:35.539Z,30.50
2018-10-19T22:39:04.861Z,30.30
2018-10-19T22:41:33.583Z,32.10
2018-10-19T22:44:02.347Z,33.90
2018-10-19T22:46:31.064Z,34.60
2018-10-19T22:48:59.825Z,35.00
2018-10-19T22:51:28.553Z,35.00
2018-10-19T22:53:57.347Z,35.20
2018-10-19T22:56:26.084Z,34.90
2018-10-19T22:58:54.850Z,34.30
2018-10-19T23:01:23.520Z,33.70
2018-10-19T23:03:52.370Z,32.50
2018-10-19T23:06:21.007Z,31.90
2018-10-19T23:08:49.768Z,32.30
2018-10-19T23:11:18.601Z,33.00
2018-10-19T23:13:47.247Z,33.70
2018-10-19T23:16:15.971Z,34.00
2018-10-19T23:18:44.722Z,33.50
2018-10-19T23:21:13.448Z,33.10
2018-10-19T23:23:42.244Z,31.90
2018-10-19T23:26:10.927Z,31.60
2018-10-19T23:28:39.680Z,32.00
2018-10-19T23:31:08.479Z,32.70
2018-10-19T23:33:37.158Z,33.20
2018-10-19T23:36:05.896Z,33.50
2018-10-19T23:38:34.620Z,33.50
2018-10-19T23:41:03.384Z,33.40
2018-10-19T23:43:32.141Z,32.90
2018-10-19T23:46:00.821Z,32.00
2018-10-19T23:48:29.545Z,31.60
2018-10-19T23:50:58.270Z,32.20
2018-10-19T23:53:26.992Z,33.40
2018-10-19T23:55:55.716Z,33.30
2018-10-19T23:58:24.451Z,33.70
